createdAt,value
2022-11-25T00:01:45.973Z,100329.34
2022-11-25T00:04:18.297Z,100332.23
2022-11-25T00:06:50.437Z,100335.34
2022-11-25T00:09:22.703Z,100337.45
2022-11-25T00:11:54.809Z,100332.90
2022-11-25T00:14:27.704Z,100332.64
2022-11-25T00:16:59.934Z,100332.98
2022-11-25T00:19:32.409Z,100333.63
2022-11-25T00:22:04.591Z,100335.14
2022-11-25T00:24:36.974Z,100335.76
2022-11-25T00:27:09.257Z,100337.95
2022-11-25T00:29:41.505Z,100342.08
2022-11-25T00:32:13.756Z,100342.34
2022-11-25T00:34:45.907Z,100339.83
2022-11-25T00:37:18.106Z,100340.63
2022-11-25T00:39:50.382Z,100339.23
2022-11-25T00:42:39.853Z,100343.85
2022-11-25T00:45:12.898Z,100345.92
2022-11-25T00:47:45.015Z,100345.81
2022-11-25T00:50:17.480Z,100353.50
2022-11-25T00:52:49.621Z,100355.52
2022-11-25T00:55:21.740Z,100356.92
2022-11-25T00:57:53.897Z,100357.59
2022-11-25T01:00:26.179Z,100362.10
2022-11-25T01:02:58.298Z,100361.56
2022-11-25T01:05:30.400Z,100361.83
2022-11-25T01:08:02.598Z,100365.16
2022-11-25T01:10:34.782Z,100369.25
2022-11-25T01:13:06.920Z,100369.23
2022-11-25T01:15:40.714Z,100369.70
2022-11-25T01:18:12.850Z,100374.59
2022-11-25T01:20:45.005Z,100371.72
2022-11-25T01:23:17.247Z,100369.99
2022-11-25T01:25:49.428Z,100368.80
2022-11-25T01:28:21.636Z,100366.25
2022-11-25T01:31:03.659Z,100366.64
2022-11-25T01:33:36.409Z,100363.92
2022-11-25T01:36:11.481Z,100366.25
2022-11-25T01:38:43.895Z,100368.11
2022-11-25T01:41:17.167Z,100371.08
2022-11-25T01:44:10.007Z,100372.02
2022-11-25T01:46:59.595Z,100374.64
2022-11-25T01:49:36.923Z,100376.77
2022-11-25T01:52:14.474Z,100376.52
2022-11-25T01:54:50.836Z,100382.64
2022-11-25T01:57:26.427Z,100385.48
2022-11-25T02:00:00.919Z,100388.80
2022-11-25T02:02:33.698Z,100395.50
2022-11-25T02:05:05.457Z,100397.51
2022-11-25T02:07:39.980Z,100401.33
2022-11-25T02:10:15.864Z,100406.09
2022-11-25T02:12:48.875Z,100411.33
2022-11-25T02:15:22.897Z,100415.99
2022-11-25T02:17:55.542Z,100418.30
2022-11-25T02:20:27.855Z,100416.15
2022-11-25T02:23:04.543Z,100420.02
2022-11-25T02:25:38.020Z,100426.11
2022-11-25T02:28:13.011Z,100428.13
2022-11-25T02:30:45.526Z,100433.37
2022-11-25T02:33:17.968Z,100435.51
2022-11-25T02:35:53.658Z,100437.08
2022-11-25T02:38:31.277Z,100441.08
2022-11-25T02:41:06.768Z,100444.41
2022-11-25T02:43:38.928Z,100443.95
2022-11-25T02:46:16.162Z,100443.82
2022-11-25T02:51:45.656Z,100447.05
2022-11-25T02:54:19.137Z,100448.90
2022-11-25T02:56:51.454Z,100450.61
2022-11-25T02:59:24.147Z,100452.86
2022-11-25T03:01:54.680Z,100456.05
2022-11-25T03:04:26.988Z,100453.11
2022-11-25T03:06:59.370Z,100458.02
2022-11-25T03:09:31.907Z,100460.12
2022-11-25T03:12:22.997Z,100458.56
2022-11-25T03:14:58.160Z,100461.86
2022-11-25T03:17:31.417Z,100461.11
2022-11-25T03:20:05.426Z,100470.52
2022-11-25T03:22:38.416Z,100476.38
2022-11-25T03:25:12.156Z,100476.73
2022-11-25T03:27:45.739Z,100482.65
2022-11-25T03:30:21.214Z,100486.34
2022-11-25T03:32:54.074Z,100485.58
2022-11-25T03:35:27.180Z,100489.14
2022-11-25T03:38:00.426Z,100489.83
2022-11-25T03:40:33.479Z,100488.94
2022-11-25T03:43:06.442Z,100488.45
2022-11-25T03:45:39.370Z,100493.50
2022-11-25T03:48:12.808Z,100497.19
2022-11-25T03:50:46.146Z,100497.62
2022-11-25T03:57:31.513Z,100504.88
2022-11-25T04:00:04.848Z,100503.30
2022-11-25T04:02:37.177Z,100508.58
2022-11-25T04:05:10.468Z,100513.99
2022-11-25T04:07:44.208Z,100513.46
2022-11-25T04:14:38.217Z,100524.58
2022-11-25T04:17:10.583Z,100530.02
2022-11-25T04:19:42.875Z,100533.77
2022-11-25T04:22:15.132Z,100535.77
2022-11-25T04:24:47.431Z,100532.48
2022-11-25T04:27:20.570Z,100534.48
2022-11-25T04:29:52.947Z,100537.03
2022-11-25T04:32:25.446Z,100540.98
2022-11-25T04:34:57.721Z,100539.54
2022-11-25T04:37:29.923Z,100543.33
2022-11-25T04:40:02.265Z,100544.95
2022-11-25T04:42:34.781Z,100546.67
2022-11-25T04:45:23.438Z,100550.33
2022-11-25T04:47:56.262Z,100550.87
2022-11-25T04:50:28.754Z,100551.20
2022-11-25T04:53:01.061Z,100555.20
2022-11-25T04:55:33.216Z,100553.87
2022-11-25T04:58:05.532Z,100556.09
2022-11-25T05:00:37.740Z,100555.38
2022-11-25T05:03:10.071Z,100559.98
2022-11-25T05:05:42.363Z,100566.27
2022-11-25T05:08:14.548Z,100572.45
2022-11-25T05:10:46.944Z,100578.09
2022-11-25T05:13:19.283Z,100582.63
2022-11-25T05:15:51.621Z,100587.73
2022-11-25T05:18:23.848Z,100594.80
2022-11-25T05:20:56.117Z,100598.00
2022-11-25T05:23:28.264Z,100604.83
2022-11-25T05:26:03.228Z,100604.66
2022-11-25T05:28:35.441Z,100604.88
2022-11-25T05:31:07.937Z,100609.40
2022-11-25T05:33:40.142Z,100608.70
2022-11-25T05:36:13.024Z,100609.95
2022-11-25T05:38:45.571Z,100615.23
2022-11-25T05:41:17.756Z,100615.73
2022-11-25T05:43:50.023Z,100621.50
2022-11-25T05:46:22.567Z,100628.71
2022-11-25T05:48:57.349Z,100631.67
2022-11-25T05:51:33.399Z,100637.23
2022-11-25T05:54:05.727Z,100646.02
2022-11-25T05:56:38.456Z,100645.09
2022-11-25T05:59:10.640Z,100653.88
2022-11-25T06:01:42.925Z,100659.98
2022-11-25T06:04:15.219Z,100663.28
2022-11-25T06:06:47.532Z,100667.33
2022-11-25T06:09:19.742Z,100668.23
2022-11-25T06:11:51.939Z,100672.54
2022-11-25T06:14:24.261Z,100675.40
2022-11-25T06:16:56.448Z,100674.02
2022-11-25T06:19:28.617Z,100675.92
2022-11-25T06:22:01.006Z,100681.05
2022-11-25T06:24:33.733Z,100684.48
2022-11-25T06:27:06.379Z,100692.86
2022-11-25T06:29:38.607Z,100687.79
2022-11-25T06:32:10.780Z,100689.06
2022-11-25T06:34:43.026Z,100693.75
2022-11-25T06:37:15.893Z,100697.86
2022-11-25T06:39:48.050Z,100702.79
2022-11-25T06:42:20.202Z,100708.16
2022-11-25T06:44:52.446Z,100707.23
2022-11-25T06:47:24.679Z,100713.25
2022-11-25T06:49:56.901Z,100714.69
2022-11-25T06:52:29.060Z,100717.34
2022-11-25T06:55:01.310Z,100723.03
2022-11-25T06:57:33.503Z,100724.83
2022-11-25T07:00:07.170Z,100726.59
2022-11-25T07:02:44.013Z,100726.63
2022-11-25T07:05:17.943Z,100729.10
2022-11-25T07:07:50.266Z,100725.39
2022-11-25T07:10:22.519Z,100729.66
2022-11-25T07:12:54.795Z,100729.16
2022-11-25T07:15:27.011Z,100733.59
2022-11-25T07:17:59.170Z,100737.48
2022-11-25T07:20:32.817Z,100738.93
2022-11-25T07:23:05.076Z,100740.98
2022-11-25T07:25:37.388Z,100741.41
2022-11-25T07:28:09.636Z,100742.13
2022-11-25T07:31:22.291Z,100747.38
2022-11-25T07:33:34.096Z,100747.92
2022-11-25T07:36:08.601Z,100754.99
2022-11-25T07:38:46.326Z,100757.91
2022-11-25T07:41:20.440Z,100758.86
2022-11-25T07:43:54.981Z,100766.33
2022-11-25T07:46:30.449Z,100771.09
2022-11-25T07:49:04.736Z,100771.66
2022-11-25T07:51:38.148Z,100778.56
2022-11-25T07:54:12.719Z,100780.84
2022-11-25T07:56:45.920Z,100778.36
2022-11-25T07:59:19.780Z,100784.06
2022-11-25T08:01:53.416Z,100786.94
2022-11-25T08:04:25.901Z,100790.34
2022-11-25T08:06:58.100Z,100792.33
2022-11-25T08:09:30.471Z,100795.30
2022-11-25T08:12:02.756Z,100795.90
2022-11-25T08:14:35.181Z,100796.59
2022-11-25T08:17:07.505Z,100803.77
2022-11-25T08:19:40.369Z,100809.36
2022-11-25T08:22:12.874Z,100810.58
2022-11-25T08:24:45.243Z,100811.84
2022-11-25T08:27:17.432Z,100813.84
2022-11-25T08:29:49.759Z,100817.60
2022-11-25T08:32:21.991Z,100817.63
2022-11-25T08:34:54.200Z,100820.42
2022-11-25T08:37:26.299Z,100819.93
2022-11-25T08:39:58.733Z,100826.66
2022-11-25T08:42:31.073Z,100828.85
2022-11-25T08:45:03.302Z,100830.71
2022-11-25T08:47:35.544Z,100833.42
2022-11-25T08:50:10.925Z,100840.27
2022-11-25T08:52:43.109Z,100841.97
2022-11-25T08:55:15.867Z,100846.48
2022-11-25T08:57:48.088Z,100847.73
2022-11-25T09:00:21.636Z,100843.44
2022-11-25T09:02:53.905Z,100849.14
2022-11-25T09:05:26.211Z,100847.33
2022-11-25T09:07:58.391Z,100843.20
2022-11-25T09:10:30.940Z,100842.77
2022-11-25T09:13:03.714Z,100843.81
2022-11-25T09:15:36.120Z,100847.92
2022-11-25T09:18:10.345Z,100847.56
2022-11-25T09:20:43.104Z,100846.23
2022-11-25T09:23:15.851Z,100844.75
2022-11-25T09:25:54.325Z,100854.92
2022-11-25T09:28:27.149Z,100858.09
2022-11-25T09:30:59.537Z,100858.38
2022-11-25T09:33:31.745Z,100856.05
2022-11-25T09:36:04.747Z,100857.89
2022-11-25T09:38:41.677Z,100857.59
2022-11-25T09:41:45.415Z,100856.85
2022-11-25T09:44:45.888Z,100857.71
2022-11-25T09:47:24.056Z,100854.54
2022-11-25T09:50:07.293Z,100852.13
2022-11-25T09:52:46.093Z,100849.95
2022-11-25T09:55:22.044Z,100844.45
2022-11-25T09:58:02.641Z,100846.22
2022-11-25T10:00:39.236Z,100844.27
2022-11-25T10:03:16.816Z,100848.65
2022-11-25T10:05:53.051Z,100848.70
2022-11-25T10:08:28.156Z,100846.52
2022-11-25T10:11:04.570Z,100843.98
2022-11-25T10:13:42.723Z,100842.11
2022-11-25T10:16:27.393Z,100838.23
2022-11-25T10:19:02.688Z,100842.63
2022-11-25T10:21:34.955Z,100844.48
2022-11-25T10:24:10.377Z,100842.92
2022-11-25T10:26:44.099Z,100837.40
2022-11-25T10:29:26.996Z,100835.31
2022-11-25T10:32:20.817Z,100834.20
2022-11-25T10:34:55.594Z,100835.41
2022-11-25T10:37:30.766Z,100832.69
2022-11-25T10:40:02.924Z,100831.31
2022-11-25T10:42:37.062Z,100831.08
2022-11-25T10:45:10.522Z,100825.23
2022-11-25T10:48:03.660Z,100828.59
2022-11-25T10:50:35.254Z,100833.58
2022-11-25T10:53:13.767Z,100831.21
2022-11-25T10:56:00.786Z,100834.67
2022-11-25T10:58:35.691Z,100832.09
2022-11-25T11:01:23.592Z,100835.56
2022-11-25T11:04:03.755Z,100830.97
2022-11-25T11:06:39.151Z,100834.98
2022-11-25T11:09:35.989Z,100832.87
2022-11-25T11:12:22.241Z,100827.16
2022-11-25T11:15:15.298Z,100822.63
2022-11-25T11:17:48.530Z,100826.08
2022-11-25T11:20:25.009Z,100827.73
2022-11-25T11:23:08.345Z,100828.09
2022-11-25T11:25:42.936Z,100824.08
2022-11-25T11:28:34.944Z,100824.55
2022-11-25T11:31:09.768Z,100819.29
2022-11-25T11:33:44.960Z,100821.79
2022-11-25T11:36:36.125Z,100819.46
2022-11-25T11:39:21.087Z,100818.95
2022-11-25T11:41:56.229Z,100816.96
2022-11-25T11:44:35.390Z,100821.14
2022-11-25T11:47:24.383Z,100818.63
2022-11-25T11:50:09.689Z,100821.45
2022-11-25T11:52:56.563Z,100816.23
2022-11-25T11:55:40.476Z,100819.37
2022-11-25T11:58:24.447Z,100819.40
2022-11-25T12:01:04.185Z,100818.51
2022-11-25T12:03:39.837Z,100820.23
2022-11-25T12:06:12.924Z,100824.52
2022-11-25T12:08:49.375Z,100826.05
2022-11-25T12:11:24.409Z,100828.81
2022-11-25T12:14:01.245Z,100830.36
2022-11-25T12:16:38.000Z,100833.78
2022-11-25T12:19:16.483Z,100834.43
2022-11-25T12:21:51.582Z,100832.69
2022-11-25T12:24:27.795Z,100832.61
2022-11-25T12:27:02.484Z,100833.48
2022-11-25T12:29:39.765Z,100839.99
2022-11-25T12:32:31.992Z,100839.08
2022-11-25T12:35:07.242Z,100841.30
2022-11-25T12:37:56.805Z,100839.01
2022-11-25T12:40:31.825Z,100837.30
2022-11-25T12:43:11.442Z,100837.14
2022-11-25T12:45:44.847Z,100832.77
2022-11-25T12:48:21.263Z,100832.97
2022-11-25T12:51:02.827Z,100840.73
2022-11-25T12:53:38.726Z,100844.34
2022-11-25T12:56:18.351Z,100844.73
2022-11-25T12:58:57.612Z,100843.59
2022-11-25T13:01:58.693Z,100845.84
2022-11-25T13:05:13.088Z,100845.77
2022-11-25T13:08:00.850Z,100846.02
2022-11-25T13:10:42.042Z,100846.30
2022-11-25T13:13:39.838Z,100843.33
2022-11-25T13:16:14.186Z,100844.15
2022-11-25T13:18:47.962Z,100845.70
2022-11-25T13:21:24.157Z,100848.94
2022-11-25T13:23:58.935Z,100845.77
2022-11-25T13:26:54.570Z,100850.86
2022-11-25T13:30:04.535Z,100852.86
2022-11-25T13:32:42.570Z,100854.16
2022-11-25T13:35:38.951Z,100856.41
2022-11-25T13:38:48.566Z,100856.56
2022-11-25T13:41:40.217Z,100853.36
2022-11-25T13:44:37.733Z,100856.94
2022-11-25T13:47:32.711Z,100856.64
2022-11-25T13:50:12.254Z,100861.48
2022-11-25T13:52:49.232Z,100862.65
2022-11-25T13:55:41.886Z,100865.41
2022-11-25T13:58:23.184Z,100869.93
2022-11-25T14:01:23.622Z,100873.57
2022-11-25T14:04:03.911Z,100875.95
2022-11-25T14:07:08.740Z,100880.27
2022-11-25T14:09:53.624Z,100882.27
2022-11-25T14:22:04.965Z,100891.42
2022-11-25T14:24:41.682Z,100894.73
2022-11-25T14:27:18.525Z,100895.20
2022-11-25T14:29:55.829Z,100893.04
2022-11-25T14:32:32.116Z,100893.94
2022-11-25T14:35:07.184Z,100893.84
2022-11-25T14:37:43.097Z,100898.80
2022-11-25T14:40:19.815Z,100898.04
2022-11-25T14:42:56.669Z,100898.09
2022-11-25T14:45:30.406Z,100901.46
2022-11-25T14:48:15.627Z,100904.77
2022-11-25T14:51:00.210Z,100907.73
2022-11-25T14:53:34.956Z,100910.35
2022-11-25T14:56:08.173Z,100908.27
2022-11-25T14:58:43.992Z,100911.33
2022-11-25T15:01:23.794Z,100912.81
2022-11-25T15:04:06.901Z,100915.38
2022-11-25T15:06:40.976Z,100916.56
2022-11-25T15:09:23.549Z,100912.42
2022-11-25T15:11:57.557Z,100914.37
2022-11-25T15:14:31.686Z,100918.84
2022-11-25T15:17:09.350Z,100913.61
2022-11-25T15:19:41.792Z,100913.69
2022-11-25T15:22:24.226Z,100923.37
2022-11-25T15:25:07.691Z,100921.42
2022-11-25T15:27:46.665Z,100924.30
2022-11-25T15:30:27.530Z,100921.29
2022-11-25T15:33:00.776Z,100924.61
2022-11-25T15:35:33.122Z,100924.12
2022-11-25T15:38:20.165Z,100929.69
2022-11-25T15:40:59.172Z,100928.58
2022-11-25T15:43:32.837Z,100929.60
2022-11-25T15:46:06.380Z,100928.01
2022-11-25T15:48:41.800Z,100931.72
2022-11-25T15:51:24.390Z,100932.95
2022-11-25T15:53:58.785Z,100933.07
2022-11-25T15:56:31.117Z,100933.58
2022-11-25T15:59:03.290Z,100938.80
2022-11-25T16:01:35.674Z,100940.72
2022-11-25T16:04:20.814Z,100941.63
2022-11-25T16:06:57.930Z,100947.41
2022-11-25T16:09:33.135Z,100950.52
2022-11-25T16:12:15.733Z,100949.79
2022-11-25T16:14:47.911Z,100954.21
2022-11-25T16:17:20.212Z,100953.41
2022-11-25T16:19:52.559Z,100955.42
2022-11-25T16:22:32.448Z,100955.33
2022-11-25T16:25:05.923Z,100959.91
2022-11-25T16:27:40.125Z,100958.07
2022-11-25T16:30:21.384Z,100960.05
2022-11-25T16:32:56.200Z,100961.54
2022-11-25T16:35:28.471Z,100963.08
2022-11-25T16:38:02.565Z,100965.43
2022-11-25T16:40:39.037Z,100969.69
2022-11-25T16:43:18.613Z,100971.77
2022-11-25T16:45:54.527Z,100976.30
2022-11-25T16:48:27.202Z,100980.49
2022-11-25T16:51:01.292Z,100983.23
2022-11-25T16:53:34.575Z,100991.08
2022-11-25T16:56:07.870Z,100994.25
2022-11-25T16:58:40.272Z,100992.70
2022-11-25T17:01:16.203Z,100992.63
2022-11-25T17:03:48.625Z,100995.09
2022-11-25T17:06:22.641Z,100995.50
2022-11-25T17:08:55.937Z,100997.49
2022-11-25T17:11:27.821Z,100997.89
2022-11-25T17:14:03.006Z,100995.54
2022-11-25T17:16:35.506Z,100992.98
2022-11-25T17:19:10.982Z,100992.14
2022-11-25T17:21:43.610Z,100992.02
2022-11-25T17:24:17.315Z,100989.40
2022-11-25T17:26:52.139Z,100989.07
2022-11-25T17:29:27.514Z,100989.66
2022-11-25T17:32:00.035Z,100991.92
2022-11-25T17:34:37.861Z,100991.42
2022-11-25T17:37:15.559Z,100990.93
2022-11-25T17:39:48.608Z,100994.05
2022-11-25T17:42:23.879Z,100995.48
2022-11-25T17:44:56.155Z,100998.67
2022-11-25T17:47:28.473Z,101006.45
2022-11-25T17:50:01.235Z,101008.87
2022-11-25T17:52:33.679Z,101013.20
2022-11-25T17:55:06.524Z,101014.81
2022-11-25T17:57:39.903Z,101018.01
2022-11-25T18:00:19.639Z,101016.08
2022-11-25T18:02:52.652Z,101019.95
2022-11-25T18:05:27.055Z,101021.90
2022-11-25T18:07:59.295Z,101024.58
2022-11-25T18:10:31.741Z,101026.74
2022-11-25T18:13:04.695Z,101028.23
2022-11-25T18:15:37.124Z,101034.95
2022-11-25T18:18:11.227Z,101034.60
2022-11-25T18:20:43.475Z,101042.45
2022-11-25T18:23:15.836Z,101040.21
2022-11-25T18:25:48.922Z,101048.84
2022-11-25T18:28:24.889Z,101053.00
2022-11-25T18:30:58.786Z,101051.50
2022-11-25T18:33:31.071Z,101054.27
2022-11-25T18:36:03.512Z,101058.02
2022-11-25T18:38:35.751Z,101062.89
2022-11-25T18:41:10.271Z,101065.34
2022-11-25T18:43:42.559Z,101071.13
2022-11-25T18:46:15.398Z,101082.65
2022-11-25T18:48:47.660Z,101081.09
2022-11-25T18:51:19.828Z,101085.27
2022-11-25T18:53:52.874Z,101085.42
2022-11-25T18:56:25.061Z,101086.55
2022-11-25T18:59:00.013Z,101089.04
2022-11-25T19:01:32.393Z,101091.16
2022-11-25T19:04:04.935Z,101091.98
2022-11-25T19:06:35.727Z,101097.23
2022-11-25T19:09:08.060Z,101101.84
2022-11-25T19:11:42.621Z,101104.77
2022-11-25T19:14:17.096Z,101107.05
2022-11-25T19:16:50.401Z,101110.89
2022-11-25T19:19:22.719Z,101115.64
2022-11-25T19:21:54.924Z,101120.48
2022-11-25T19:24:27.229Z,101118.77
2022-11-25T19:26:59.798Z,101118.59
2022-11-25T19:29:41.483Z,101122.73
2022-11-25T19:32:22.244Z,101125.91
2022-11-25T19:34:56.517Z,101130.05
2022-11-25T19:37:30.307Z,101136.12
2022-11-25T19:40:05.086Z,101139.13
2022-11-25T19:42:37.358Z,101137.70
2022-11-25T19:45:11.139Z,101136.67
2022-11-25T19:47:43.631Z,101142.08
2022-11-25T19:50:21.796Z,101146.77
2022-11-25T19:52:54.422Z,101148.32
2022-11-25T19:55:27.488Z,101152.18
2022-11-25T19:58:00.156Z,101151.02
2022-11-25T20:00:30.710Z,101155.59
2022-11-25T20:03:03.070Z,101157.05
2022-11-25T20:05:37.037Z,101160.67
2022-11-25T20:08:11.743Z,101162.54
2022-11-25T20:10:44.070Z,101164.64
2022-11-25T20:13:16.383Z,101168.15
2022-11-25T20:15:48.994Z,101172.00
2022-11-25T20:18:23.440Z,101174.52
2022-11-25T20:20:59.902Z,101180.75
2022-11-25T20:23:38.567Z,101182.60
2022-11-25T20:26:19.499Z,101183.30
2022-11-25T20:28:51.787Z,101185.46
2022-11-25T20:31:28.745Z,101189.91
2022-11-25T20:34:02.515Z,101191.17
2022-11-25T20:36:35.077Z,101193.73
2022-11-25T20:39:07.482Z,101200.40
2022-11-25T20:41:39.673Z,101203.19
2022-11-25T20:44:15.015Z,101205.83
2022-11-25T20:46:47.227Z,101209.58
2022-11-25T20:49:27.332Z,101214.06
2022-11-25T20:52:01.287Z,101215.72
2022-11-25T20:54:36.417Z,101220.74
2022-11-25T20:57:12.273Z,101221.23
2022-11-25T20:59:45.304Z,101226.96
2022-11-25T21:02:21.755Z,101230.10
2022-11-25T21:04:54.211Z,101232.68
2022-11-25T21:07:26.705Z,101234.59
2022-11-25T21:09:59.018Z,101238.07
2022-11-25T21:12:31.184Z,101242.23
2022-11-25T21:15:03.666Z,101239.59
2022-11-25T21:17:36.057Z,101243.77
2022-11-25T21:20:10.062Z,101250.95
2022-11-25T21:22:44.418Z,101256.92
2022-11-25T21:25:20.475Z,101250.98
2022-11-25T21:27:53.177Z,101251.20
2022-11-25T21:30:27.521Z,101253.77
2022-11-25T21:33:01.504Z,101254.33
2022-11-25T21:35:35.547Z,101253.65
2022-11-25T21:38:10.072Z,101258.23
2022-11-25T21:40:44.049Z,101261.00
2022-11-25T21:43:21.553Z,101268.89
2022-11-25T21:45:58.564Z,101273.29
2022-11-25T21:48:31.516Z,101272.23
2022-11-25T21:51:04.669Z,101272.42
2022-11-25T21:53:37.693Z,101271.95
2022-11-25T21:56:18.698Z,101273.16
2022-11-25T21:58:51.390Z,101275.49
2022-11-25T22:01:24.165Z,101273.14
2022-11-25T22:03:55.100Z,101273.08
2022-11-25T22:06:29.153Z,101271.66
2022-11-25T22:09:01.564Z,101277.77
2022-11-25T22:11:35.787Z,101277.90
2022-11-25T22:14:12.969Z,101276.45
2022-11-25T22:16:45.576Z,101275.58
2022-11-25T22:19:22.778Z,101278.61
2022-11-25T22:21:55.310Z,101282.11
2022-11-25T22:24:27.793Z,101281.50
2022-11-25T22:27:00.369Z,101282.27
2022-11-25T22:29:35.998Z,101281.89
2022-11-25T22:32:12.818Z,101285.89
2022-11-25T22:34:45.648Z,101292.52
2022-11-25T22:37:20.212Z,101300.44
2022-11-25T22:39:53.057Z,101306.30
2022-11-25T22:42:28.701Z,101303.35
2022-11-25T22:45:02.368Z,101303.45
2022-11-25T22:47:37.660Z,101307.16
2022-11-25T22:50:19.241Z,101311.56
2022-11-25T22:52:52.592Z,101316.05
2022-11-25T22:55:27.362Z,101319.94
2022-11-25T22:58:01.309Z,101321.36
2022-11-25T23:00:37.411Z,101326.30
2022-11-25T23:03:14.244Z,101327.02
2022-11-25T23:05:46.846Z,101329.90
2022-11-25T23:08:21.206Z,101330.73
2022-11-25T23:10:54.328Z,101334.42
2022-11-25T23:13:27.319Z,101338.03
2022-11-25T23:15:58.813Z,101333.80
2022-11-25T23:18:38.119Z,101338.64
2022-11-25T23:21:18.485Z,101340.91
2022-11-25T23:23:51.118Z,101344.29
2022-11-25T23:26:23.745Z,101345.58
2022-11-25T23:28:56.485Z,101347.40
2022-11-25T23:31:28.984Z,101353.16
2022-11-25T23:34:01.578Z,101354.34
2022-11-25T23:36:39.674Z,101360.11
2022-11-25T23:39:20.703Z,101364.73
2022-11-25T23:41:53.747Z,101373.36
2022-11-25T23:44:28.381Z,101375.55
2022-11-25T23:47:03.893Z,101384.15
2022-11-25T23:49:38.753Z,101387.64
2022-11-25T23:52:14.051Z,101393.64
2022-11-25T23:54:48.200Z,101402.30
2022-11-25T23:57:22.706Z,101402.36
2022-11-25T23:59:55.425Z,101404.27
